createdAt,value
2019-02-02T00:00:50.155Z,6.20
2019-02-02T00:03:29.629Z,6.47
2019-02-02T00:06:08.521Z,7.67
2019-02-02T00:08:47.760Z,7.20
2019-02-02T00:11:27.694Z,7.07
2019-02-02T00:14:06.708Z,6.60
2019-02-02T00:16:46.582Z,7.23
2019-02-02T00:19:25.591Z,6.67
2019-02-02T00:22:04.750Z,6.97
2019-02-02T00:24:44.367Z,6.73
2019-02-02T00:27:24.314Z,7.00
2019-02-02T00:30:04.235Z,7.00
2019-02-02T00:32:43.196Z,7.23
2019-02-02T00:35:22.207Z,8.23
2019-02-02T00:38:02.106Z,7.17
2019-02-02T00:40:41.383Z,7.10
2019-02-02T00:43:21.063Z,7.57
2019-02-02T00:46:00.240Z,7.37
2019-02-02T00:48:40.075Z,9.03
2019-02-02T00:51:19.143Z,7.00
2019-02-02T00:53:58.335Z,8.53
2019-02-02T00:56:37.300Z,8.57
2019-02-02T00:59:16.787Z,6.97
2019-02-02T01:01:56.532Z,7.77
2019-02-02T01:04:36.623Z,8.47
2019-02-02T01:07:16.691Z,8.07
2019-02-02T01:09:56.596Z,8.40
2019-02-02T01:12:35.579Z,8.33
2019-02-02T01:15:14.712Z,9.63
2019-02-02T01:17:54.223Z,8.13
2019-02-02T01:20:34.073Z,8.17
2019-02-02T01:23:13.318Z,7.73
2019-02-02T01:25:53.391Z,8.57
2019-02-02T01:28:32.410Z,8.13
2019-02-02T01:31:11.583Z,9.80
2019-02-02T01:33:50.887Z,9.07
2019-02-02T01:36:30.375Z,9.37
2019-02-02T01:39:09.416Z,9.43
2019-02-02T01:41:48.647Z,9.57
2019-02-02T01:44:28.541Z,10.10
2019-02-02T01:47:08.399Z,9.57
2019-02-02T01:49:47.513Z,10.57
2019-02-02T01:52:26.683Z,9.13
2019-02-02T01:55:06.505Z,10.13
2019-02-02T01:57:45.672Z,9.50
2019-02-02T02:00:24.653Z,9.90
2019-02-02T02:03:03.637Z,10.43
2019-02-02T02:05:42.775Z,10.93
2019-02-02T02:08:22.865Z,9.43
2019-02-02T02:11:02.137Z,10.07
2019-02-02T02:13:42.090Z,10.10
2019-02-02T02:16:21.919Z,9.63
2019-02-02T02:19:01.079Z,9.70
2019-02-02T02:21:40.241Z,11.97
2019-02-02T02:24:19.285Z,9.43
2019-02-02T02:26:58.355Z,10.03
2019-02-02T02:29:37.824Z,7.87
2019-02-02T02:32:17.673Z,8.23
2019-02-02T02:34:57.554Z,8.47
2019-02-02T02:37:37.339Z,8.77
2019-02-02T02:40:16.367Z,11.47
2019-02-02T02:42:55.330Z,9.30
2019-02-02T02:45:34.667Z,12.23
2019-02-02T02:48:13.669Z,11.17
2019-02-02T02:50:52.690Z,10.33
2019-02-02T02:53:31.927Z,9.70
2019-02-02T02:56:11.401Z,10.00
2019-02-02T02:58:51.112Z,10.40
2019-02-02T03:01:31.286Z,11.50
2019-02-02T03:04:10.498Z,10.47
2019-02-02T03:06:49.435Z,10.63
2019-02-02T03:09:28.430Z,10.43
2019-02-02T03:12:07.388Z,10.73
2019-02-02T03:14:46.585Z,10.93
2019-02-02T03:17:52.943Z,11.07
2019-02-02T03:20:32.426Z,11.07
2019-02-02T03:23:18.324Z,11.43
2019-02-02T03:26:04.442Z,11.70
2019-02-02T03:28:53.453Z,10.43
2019-02-02T03:31:38.229Z,12.00
2019-02-02T03:34:24.226Z,11.47
2019-02-02T03:37:10.336Z,12.60
2019-02-02T03:39:56.255Z,11.40
2019-02-02T03:42:42.137Z,11.07
2019-02-02T03:45:28.052Z,12.17
2019-02-02T03:48:13.926Z,12.03
2019-02-02T03:50:59.950Z,11.80
2019-02-02T03:53:45.872Z,13.03
2019-02-02T03:56:31.875Z,13.33
2019-02-02T03:59:17.766Z,12.73
2019-02-02T04:02:03.677Z,11.40
2019-02-02T04:04:49.805Z,13.00
2019-02-02T04:07:35.724Z,10.80
2019-02-02T04:10:21.611Z,11.77
2019-02-02T04:13:07.521Z,12.87
2019-02-02T04:15:53.419Z,12.47
2019-02-02T04:18:39.535Z,12.27
2019-02-02T04:21:19.452Z,12.13
2019-02-02T04:24:05.339Z,11.90
2019-02-02T04:26:51.238Z,12.30
2019-02-02T04:29:37.364Z,13.47
2019-02-02T04:32:23.275Z,13.20
2019-02-02T04:35:09.879Z,12.13
2019-02-02T04:37:56.007Z,13.20
2019-02-02T04:40:41.912Z,11.90
2019-02-02T04:43:27.799Z,12.53
2019-02-02T04:46:13.705Z,12.93
2019-02-02T04:48:59.843Z,13.97
2019-02-02T04:51:45.789Z,13.27
2019-02-02T04:54:31.684Z,13.33
2019-02-02T04:57:17.575Z,13.57
2019-02-02T05:00:25.247Z,13.37
2019-02-02T05:03:11.226Z,13.03
2019-02-02T05:05:57.110Z,12.83
2019-02-02T05:08:43.032Z,11.47
2019-02-02T05:11:28.925Z,12.90
2019-02-02T05:14:14.831Z,13.80
2019-02-02T05:17:00.723Z,13.53
2019-02-02T05:19:46.630Z,12.83
2019-02-02T05:22:26.136Z,13.90
2019-02-02T05:25:12.139Z,13.43
2019-02-02T05:27:58.059Z,11.47
2019-02-02T05:30:43.958Z,12.23
2019-02-02T05:33:29.950Z,13.63
2019-02-02T05:36:15.843Z,13.03
2019-02-02T05:39:23.767Z,12.67
2019-02-02T05:42:09.654Z,13.67
2019-02-02T05:44:55.568Z,13.23
2019-02-02T05:47:41.699Z,13.90
2019-02-02T05:50:27.600Z,13.43
2019-02-02T05:53:13.521Z,14.03
2019-02-02T05:55:59.483Z,14.90
2019-02-02T05:58:45.367Z,15.60
2019-02-02T06:01:31.307Z,15.30
2019-02-02T06:04:17.203Z,14.40
2019-02-02T06:07:03.100Z,14.40
2019-02-02T06:09:48.992Z,15.23
2019-02-02T06:12:34.893Z,15.13
2019-02-02T06:15:21.018Z,14.07
2019-02-02T06:18:07.040Z,14.80
2019-02-02T06:20:52.942Z,15.23
2019-02-02T06:23:32.608Z,15.50
2019-02-02T06:26:18.495Z,14.93
2019-02-02T06:29:04.417Z,16.57
2019-02-02T06:31:50.548Z,16.33
2019-02-02T06:34:36.480Z,16.57
2019-02-02T06:37:22.591Z,16.30
2019-02-02T06:40:09.504Z,15.50
2019-02-02T06:42:55.429Z,14.97
2019-02-02T06:45:41.494Z,14.93
2019-02-02T06:48:27.379Z,15.03
2019-02-02T06:51:13.389Z,16.00
2019-02-02T06:53:59.275Z,16.40
2019-02-02T06:56:45.226Z,16.77
2019-02-02T06:59:31.130Z,16.33
2019-02-02T07:02:17.031Z,15.83
2019-02-02T07:05:24.759Z,15.47
2019-02-02T07:08:10.884Z,14.20
2019-02-02T07:10:56.795Z,14.63
2019-02-02T07:13:42.902Z,14.83
2019-02-02T07:16:29.038Z,14.93
2019-02-02T07:19:14.923Z,13.70
2019-02-02T07:22:00.824Z,15.50
2019-02-02T07:24:44.302Z,14.40
2019-02-02T07:27:30.212Z,15.63
2019-02-02T07:30:27.635Z,15.63
2019-02-02T07:33:04.805Z,17.07
2019-02-02T07:35:50.692Z,18.87
2019-02-02T07:38:36.692Z,16.70
2019-02-02T07:41:22.574Z,15.60
2019-02-02T07:44:08.532Z,16.47
2019-02-02T07:46:54.421Z,20.80
2019-02-02T07:49:40.441Z,18.63
2019-02-02T07:52:26.323Z,18.80
2019-02-02T07:55:32.110Z,19.70
2019-02-02T07:58:18.276Z,20.00
2019-02-02T08:01:04.254Z,20.97
2019-02-02T08:03:50.142Z,22.20
2019-02-02T08:06:36.067Z,21.27
2019-02-02T08:09:22.192Z,19.60
2019-02-02T08:12:08.228Z,22.53
2019-02-02T08:14:54.115Z,22.27
2019-02-02T08:17:40.036Z,22.03
2019-02-02T08:20:25.932Z,19.70
2019-02-02T08:23:11.862Z,21.53
2019-02-02T08:25:51.564Z,21.53
2019-02-02T08:28:37.923Z,21.93
2019-02-02T08:31:23.803Z,21.57
2019-02-02T08:34:09.716Z,21.87
2019-02-02T08:36:55.609Z,20.87
2019-02-02T08:39:41.524Z,22.00
2019-02-02T08:42:27.416Z,22.50
2019-02-02T08:45:13.816Z,21.40
2019-02-02T08:47:59.707Z,22.03
2019-02-02T08:50:46.357Z,21.77
2019-02-02T08:53:32.552Z,21.37
2019-02-02T08:56:18.566Z,20.53
2019-02-02T08:59:04.569Z,21.17
2019-02-02T09:01:50.503Z,21.33
2019-02-02T09:04:36.706Z,20.03
2019-02-02T09:07:23.446Z,20.47
2019-02-02T09:10:31.350Z,20.97
2019-02-02T09:13:17.450Z,20.40
2019-02-02T09:16:03.365Z,21.73
2019-02-02T09:18:51.315Z,21.23
2019-02-02T09:21:37.439Z,21.63
2019-02-02T09:24:23.628Z,22.43
2019-02-02T09:27:03.560Z,21.33
2019-02-02T09:29:49.696Z,25.40
2019-02-02T09:32:35.612Z,21.70
2019-02-02T09:35:21.864Z,22.23
2019-02-02T09:38:07.808Z,23.67
2019-02-02T09:40:53.741Z,21.57
2019-02-02T09:43:39.876Z,22.27
2019-02-02T09:46:25.839Z,22.87
2019-02-02T09:49:11.736Z,23.50
2019-02-02T09:51:57.645Z,23.97
2019-02-02T09:54:43.534Z,24.37
2019-02-02T09:57:29.528Z,24.53
2019-02-02T10:00:37.228Z,25.40
2019-02-02T10:03:23.506Z,23.83
2019-02-02T10:06:09.403Z,23.20
2019-02-02T10:08:55.536Z,24.83
2019-02-02T10:11:41.536Z,25.80
2019-02-02T10:14:27.453Z,24.80
2019-02-02T10:17:13.340Z,24.67
2019-02-02T10:19:59.250Z,26.13
2019-02-02T10:22:45.384Z,25.90
2019-02-02T10:25:31.284Z,25.10
2019-02-02T10:28:14.077Z,25.43
2019-02-02T10:30:59.987Z,25.27
2019-02-02T10:33:45.884Z,26.53
2019-02-02T10:36:31.796Z,26.97
2019-02-02T10:39:17.706Z,24.43
2019-02-02T10:42:03.616Z,25.63
2019-02-02T10:44:49.519Z,24.40
2019-02-02T10:47:35.652Z,25.73
2019-02-02T10:50:22.604Z,24.77
2019-02-02T10:53:08.499Z,23.77
2019-02-02T10:55:54.409Z,26.33
2019-02-02T10:58:40.286Z,24.97
2019-02-02T11:01:26.200Z,23.37
2019-02-02T11:04:12.375Z,24.93
2019-02-02T11:06:58.335Z,25.13
2019-02-02T11:09:44.458Z,26.30
2019-02-02T11:12:30.355Z,25.97
2019-02-02T11:15:17.295Z,27.23
2019-02-02T11:18:04.158Z,25.60
2019-02-02T11:20:51.893Z,25.60
2019-02-02T11:23:37.801Z,26.47
2019-02-02T11:26:23.834Z,24.83
2019-02-02T11:29:03.455Z,25.57
2019-02-02T11:31:49.363Z,25.13
2019-02-02T11:34:35.265Z,23.97
2019-02-02T11:37:21.194Z,26.27
2019-02-02T11:40:28.872Z,24.10
2019-02-02T11:43:14.783Z,24.87
2019-02-02T11:46:00.691Z,24.47
2019-02-02T11:48:46.593Z,25.83
2019-02-02T11:51:32.503Z,25.50
2019-02-02T11:54:18.402Z,26.17
2019-02-02T11:57:04.319Z,24.33
2019-02-02T11:59:50.203Z,25.27
2019-02-02T12:02:36.352Z,25.27
2019-02-02T12:05:22.492Z,24.33
2019-02-02T12:08:08.400Z,23.67
2019-02-02T12:10:54.301Z,24.80
2019-02-02T12:13:40.237Z,24.70
2019-02-02T12:16:26.120Z,23.17
2019-02-02T12:19:12.022Z,24.63
2019-02-02T12:21:57.939Z,24.10
2019-02-02T12:24:44.174Z,25.17
2019-02-02T12:27:30.068Z,24.50
2019-02-02T12:30:10.796Z,25.57
2019-02-02T12:32:56.694Z,24.50
2019-02-02T12:35:42.835Z,27.13
2019-02-02T12:38:28.750Z,27.67
2019-02-02T12:41:14.644Z,27.93
2019-02-02T12:44:00.788Z,29.17
2019-02-02T12:46:46.668Z,24.63
2019-02-02T12:49:32.575Z,25.20
2019-02-02T12:52:18.476Z,22.17
2019-02-02T12:55:05.353Z,21.20
2019-02-02T12:57:51.257Z,23.20
2019-02-02T13:00:37.203Z,24.50
2019-02-02T13:03:23.112Z,21.47
2019-02-02T13:06:09.007Z,23.33
2019-02-02T13:08:54.918Z,22.83
2019-02-02T13:11:40.802Z,20.30
2019-02-02T13:14:26.702Z,22.07
2019-02-02T13:17:12.611Z,20.97
2019-02-02T13:19:58.510Z,21.70
2019-02-02T13:22:44.495Z,18.80
2019-02-02T13:25:30.392Z,17.80
2019-02-02T13:28:16.293Z,18.53
2019-02-02T13:30:56.527Z,17.70
2019-02-02T13:33:42.417Z,17.70
2019-02-02T13:36:28.340Z,18.30
2019-02-02T13:39:14.247Z,19.83
2019-02-02T13:42:00.193Z,17.93
2019-02-02T13:44:46.126Z,19.07
2019-02-02T13:47:32.282Z,19.57
2019-02-02T13:50:18.393Z,18.80
2019-02-02T13:53:04.880Z,20.87
2019-02-02T13:55:51.023Z,22.33
2019-02-02T13:58:36.914Z,22.57
2019-02-02T14:01:22.825Z,23.30
2019-02-02T14:04:08.710Z,24.80
2019-02-02T14:06:54.610Z,23.00
2019-02-02T14:09:40.609Z,22.40
2019-02-02T14:12:26.528Z,20.40
2019-02-02T14:15:12.912Z,20.83
2019-02-02T14:17:58.852Z,21.77
2019-02-02T14:20:44.746Z,20.90
2019-02-02T14:23:30.652Z,22.37
2019-02-02T14:26:16.534Z,20.83
2019-02-02T14:29:02.536Z,21.83
2019-02-02T14:31:42.575Z,23.03
2019-02-02T14:34:39.554Z,22.40
2019-02-02T14:37:16.482Z,24.23
2019-02-02T14:40:24.222Z,21.63
2019-02-02T14:43:10.137Z,22.33
2019-02-02T14:45:56.276Z,22.03
2019-02-02T14:48:42.463Z,22.60
2019-02-02T14:51:28.368Z,22.60
2019-02-02T14:54:14.279Z,24.60
2019-02-02T14:57:00.166Z,23.17
2019-02-02T14:59:46.076Z,22.70
2019-02-02T15:02:31.972Z,23.40
2019-02-02T15:08:18.452Z,20.37
2019-02-02T15:11:04.360Z,21.30
2019-02-02T15:13:44.195Z,20.00
2019-02-02T15:16:30.112Z,21.70
2019-02-02T15:19:16.001Z,21.10
2019-02-02T15:22:01.903Z,20.80
2019-02-02T15:24:47.791Z,18.77
2019-02-02T15:27:33.692Z,19.90
2019-02-02T15:30:41.747Z,20.57
2019-02-02T15:33:37.602Z,20.07
2019-02-02T15:36:15.434Z,22.53
2019-02-02T15:39:01.415Z,19.90
2019-02-02T15:41:53.105Z,21.73
2019-02-02T15:44:35.119Z,21.77
2019-02-02T15:47:21.028Z,24.10
2019-02-02T15:50:28.700Z,23.20
2019-02-02T15:53:14.704Z,23.83
2019-02-02T15:56:00.849Z,23.67
2019-02-02T15:58:47.073Z,23.20
2019-02-02T16:01:33.191Z,24.20
2019-02-02T16:04:19.098Z,24.77
2019-02-02T16:07:05.240Z,22.97
2019-02-02T16:09:51.224Z,24.20
2019-02-02T16:12:37.116Z,23.53
2019-02-02T16:15:17.062Z,25.03
2019-02-02T16:18:03.453Z,26.93
2019-02-02T16:20:49.344Z,26.23
2019-02-02T16:23:35.256Z,25.13
2019-02-02T16:26:21.147Z,25.80
2019-02-02T16:29:07.047Z,25.33
2019-02-02T16:31:52.944Z,23.80
2019-02-02T16:34:39.074Z,23.80
2019-02-02T16:37:24.963Z,24.83
2019-02-02T16:40:30.742Z,25.53
2019-02-02T16:43:16.638Z,23.73
2019-02-02T16:46:02.945Z,26.23
2019-02-02T16:48:48.839Z,24.97
2019-02-02T16:51:34.747Z,26.13
2019-02-02T16:54:20.636Z,23.73
2019-02-02T16:57:06.544Z,23.47
2019-02-02T16:59:52.432Z,24.03
2019-02-02T17:02:38.591Z,24.20
2019-02-02T17:05:24.485Z,25.20
2019-02-02T17:08:10.402Z,23.03
2019-02-02T17:10:56.301Z,23.47
2019-02-02T17:13:36.435Z,25.73
2019-02-02T17:16:22.351Z,25.17
2019-02-02T17:19:08.239Z,24.33
2019-02-02T17:21:54.149Z,22.10
2019-02-02T17:24:40.295Z,22.53
2019-02-02T17:27:26.234Z,23.87
2019-02-02T17:30:33.907Z,23.77
2019-02-02T17:33:20.067Z,23.73
2019-02-02T17:36:05.965Z,24.67
2019-02-02T17:38:51.872Z,24.00
2019-02-02T17:41:37.754Z,23.47
2019-02-02T17:44:23.804Z,24.83
2019-02-02T17:47:09.716Z,23.50
2019-02-02T17:49:55.636Z,25.00
2019-02-02T17:52:41.626Z,25.33
2019-02-02T17:55:27.528Z,24.00
2019-02-02T17:58:13.621Z,23.17
2019-02-02T18:00:59.632Z,23.87
2019-02-02T18:03:45.524Z,22.30
2019-02-02T18:06:31.673Z,23.53
2019-02-02T18:09:17.565Z,21.07
2019-02-02T18:12:03.467Z,22.73
2019-02-02T18:14:43.442Z,21.20
2019-02-02T18:17:29.365Z,22.97
2019-02-02T18:20:15.351Z,22.23
2019-02-02T18:23:01.251Z,21.70
2019-02-02T18:25:47.135Z,21.70
2019-02-02T18:28:33.042Z,21.03
2019-02-02T18:31:18.964Z,20.17
2019-02-02T18:34:04.871Z,18.53
2019-02-02T18:36:50.886Z,15.77
2019-02-02T18:39:37.007Z,15.37
2019-02-02T18:42:22.924Z,16.17
2019-02-02T18:45:30.611Z,13.73
2019-02-02T18:48:16.523Z,12.37
2019-02-02T18:51:02.511Z,11.77
2019-02-02T18:53:48.427Z,12.40
2019-02-02T18:56:34.314Z,13.50
2019-02-02T18:59:20.461Z,13.80
2019-02-02T19:02:06.355Z,12.50
2019-02-02T19:05:02.979Z,13.73
2019-02-02T19:07:40.056Z,14.00
2019-02-02T19:13:46.533Z,14.33
2019-02-02T19:16:25.822Z,14.80
2019-02-02T19:19:11.732Z,15.23
2019-02-02T19:21:57.637Z,14.03
2019-02-02T19:24:43.564Z,12.60
2019-02-02T19:27:29.473Z,14.43
2019-02-02T19:30:37.143Z,12.60
2019-02-02T19:33:23.037Z,12.67
2019-02-02T19:36:09.158Z,12.00
2019-02-02T19:38:55.076Z,13.13
2019-02-02T19:41:40.961Z,12.43
2019-02-02T19:44:26.865Z,14.33
2019-02-02T19:47:16.171Z,14.07
2019-02-02T19:50:00.579Z,14.03
2019-02-02T19:52:46.707Z,12.27
2019-02-02T19:55:32.660Z,11.20
2019-02-02T19:58:18.785Z,11.50
2019-02-02T20:01:05.018Z,11.37
2019-02-02T20:03:51.137Z,10.97
2019-02-02T20:06:37.052Z,8.83
2019-02-02T20:09:22.971Z,10.63
2019-02-02T20:12:09.196Z,9.67
2019-02-02T20:14:48.667Z,9.07
2019-02-02T20:17:34.576Z,10.40
2019-02-02T20:20:21.287Z,10.40
2019-02-02T20:23:07.461Z,9.73
2019-02-02T20:25:53.356Z,9.70
2019-02-02T20:28:39.265Z,8.57
2019-02-02T20:31:25.167Z,7.80
2019-02-02T20:34:11.308Z,8.90
2019-02-02T20:36:57.427Z,9.57
2019-02-02T20:39:43.570Z,8.33
2019-02-02T20:42:29.461Z,7.30
2019-02-02T20:45:37.467Z,7.33
2019-02-02T20:48:23.378Z,7.30
2019-02-02T20:51:09.372Z,8.23
2019-02-02T20:53:55.290Z,7.93
2019-02-02T20:56:41.182Z,6.73
2019-02-02T20:59:27.087Z,7.20
2019-02-02T21:02:13.015Z,6.90
2019-02-02T21:04:59.228Z,5.73
2019-02-02T21:07:45.121Z,5.60
2019-02-02T21:10:31.028Z,6.50
2019-02-02T21:13:16.931Z,6.13
2019-02-02T21:15:56.837Z,5.93
2019-02-02T21:18:42.742Z,5.70
2019-02-02T21:21:28.641Z,5.63
2019-02-02T21:24:15.076Z,5.43
2019-02-02T21:27:00.991Z,5.23
2019-02-02T21:29:46.913Z,5.90
2019-02-02T21:32:32.809Z,5.63
2019-02-02T21:35:18.717Z,4.93
2019-02-02T21:38:04.824Z,4.90
2019-02-02T21:40:50.720Z,4.90
2019-02-02T21:43:37.255Z,4.73
2019-02-02T21:46:23.162Z,5.47
2019-02-02T21:49:09.324Z,6.00
2019-02-02T21:51:55.198Z,5.47
2019-02-02T21:54:41.332Z,4.77
2019-02-02T21:57:27.229Z,5.80
2019-02-02T22:00:34.915Z,5.57
2019-02-02T22:03:20.799Z,4.63
2019-02-02T22:06:15.226Z,6.00
2019-02-02T22:08:55.490Z,6.17
2019-02-02T22:11:41.643Z,6.83
2019-02-02T22:14:20.771Z,8.03
2019-02-02T22:17:06.921Z,7.77
2019-02-02T22:19:52.823Z,8.00
2019-02-02T22:22:38.980Z,7.03
2019-02-02T22:25:46.645Z,7.00
2019-02-02T22:28:32.552Z,6.43
2019-02-02T22:31:18.663Z,7.03
2019-02-02T22:34:04.572Z,7.33
2019-02-02T22:36:50.485Z,6.40
2019-02-02T22:39:36.371Z,6.20
2019-02-02T22:42:22.291Z,6.50
2019-02-02T22:45:29.971Z,6.83
2019-02-02T22:48:16.116Z,6.37
2019-02-02T22:51:02.240Z,7.07
2019-02-02T22:53:48.143Z,6.47
2019-02-02T22:56:34.258Z,6.60
2019-02-02T22:59:20.229Z,7.10
2019-02-02T23:02:07.027Z,7.27
2019-02-02T23:05:15.378Z,6.77
2019-02-02T23:07:44.233Z,7.37
2019-02-02T23:10:44.400Z,7.53
2019-02-02T23:13:52.619Z,8.43
2019-02-02T23:16:26.683Z,7.83
2019-02-02T23:18:53.139Z,8.37
2019-02-02T23:21:40.120Z,8.80
2019-02-02T23:24:19.676Z,8.60
2019-02-02T23:27:06.001Z,7.87
2019-02-02T23:29:51.977Z,8.70
2019-02-02T23:32:37.858Z,8.13
2019-02-02T23:35:23.766Z,7.67
2019-02-02T23:38:09.644Z,7.00
2019-02-02T23:40:55.552Z,6.87
2019-02-02T23:43:41.439Z,8.43
2019-02-02T23:46:27.645Z,7.93
2019-02-02T23:49:13.578Z,7.57
2019-02-02T23:51:59.455Z,8.20
2019-02-02T23:54:45.363Z,7.13
2019-02-02T23:57:31.277Z,6.73
